• Join FlightAware (Why Join?)
  • Login
  • US Flag 
10:07AM EDT


 

Airport Tracker/Info


-or-


 

Live Flight TrackerFlight Track Log ✈ KAL1331 ✈ 12-Jul-2013 ✈ RKSS / GMP - RKJY / RSU

Flight Track Log - Related Links

Times and Time Zones

All times are in EDT time to prevent confusion due to time zone crossing. See the KAL1331 flight status page for this flight to view local times or setup timezone preferences in your user account.

Time Position Orientation Groundspeed Altitude Reporting Facility
EDT Latitude Longitude Course Direction KTS MPH feet Rate Location/Type
06:28PM 37.5000 126.8640 145° Southeast 200 230 4,100  Level FlightAware
06:28PM 37.4830 126.8730 157° South 219 252 4,400 1,500 Climbing FlightAware
06:28PM 37.4670 126.8790 163° South 240 276 5,000 2,040 Climbing FlightAware
06:28PM 37.4440 126.8880 163° South 252 290 5,600 2,280 Climbing FlightAware
06:29PM 37.4110 126.9020 161° South 270 311 6,900 2,760 Climbing FlightAware
06:29PM 37.3840 126.9130 162° South 274 315 7,900 3,060 Climbing FlightAware
06:29PM 37.3720 126.9190 158° South 289 333 8,400 2,880 Climbing FlightAware
06:30PM 37.3370 126.9470 148° Southeast 294 338 9,900 2,400 Climbing FlightAware
06:31PM 37.2840 126.9930 145° Southeast 335 386 11,400 2,400 Climbing FlightAware
06:31PM 37.2360 127.0250 152° Southeast 333 383 13,100 1,500 Climbing FlightAware
06:32PM 37.1650 127.0340 174° South 337 388 13,600 300 Climbing FlightAware
06:33PM 37.1180 127.0400 174° South 337 388 13,600  Level FlightAware
06:35PM 37.0135 127.0671 168° South  Level Estimated
06:36PM 36.9538 127.0826 168° South  Level Estimated
06:37PM 36.8941 127.0981 168° South  Level Estimated
06:38PM 36.8344 127.1135 168° South  Level Estimated
06:39PM 36.7747 127.1289 168° South  Level Estimated
06:40PM 36.7150 127.1443 168° South  Level Estimated
06:41PM 36.6552 127.1597 168° South  Level Estimated
06:42PM 36.5955 127.1750 168° South  Level Estimated
06:43PM 36.5358 127.1903 168° South  Level Estimated
06:44PM 36.4761 127.2056 168° South  Level Estimated
06:45PM 36.4164 127.2208 168° South  Level Estimated
06:46PM 36.3566 127.2361 168° South  Level Estimated
06:47PM 36.2969 127.2513 168° South  Level Estimated
06:48PM 36.2384 127.2662 168° South  Level Estimated
06:49PM 36.1800 127.2810 168° South  Level Estimated
06:50PM 36.1215 127.2958 168° South  Level Estimated
06:51PM 36.0630 127.3106 168° South  Level Estimated
06:52PM 36.0046 127.3254 168° South  Level Estimated
06:53PM 35.9461 127.3402 168° South  Level Estimated
06:54PM 35.8876 127.3549 168° South  Level Estimated
06:55PM 35.8292 127.3696 168° South  Level Estimated
06:56PM 35.7707 127.3843 168° South  Level Estimated
06:57PM 35.7122 127.3990 168° South  Level Estimated
06:58PM 35.6537 127.4137 168° South  Level Estimated
06:59PM 35.5953 127.4283 169° South  Level Estimated
07:00PM 35.5368 127.4429 169° South  Level Estimated
07:01PM 35.4783 127.4575 169° South  Level Estimated
07:02PM 35.4198 127.4720 169° South  Level Estimated
07:03PM 35.3613 127.4866 169° South  Level Estimated
07:04PM 35.3028 127.5011 169° South  Level Estimated
07:05PM 35.2443 127.5156 169° South  Level Estimated
07:06PM 35.1858 127.5301 169° South  Level Estimated
07:07PM 35.1274 127.5445 169° South  Level Estimated
07:08PM 35.0689 127.5590 169° South  Level Estimated
07:09PM 35.0104 127.5734 169° South  Level Estimated
07:10PM 34.9519 127.5878 169° South  Level Estimated
07:11PM 34.8934 127.6022 169° South  Level Estimated
07:12PM 34.8398 127.6153 169° South  Level Estimated
07:13PM 34.8398 127.6153 180° South  Level Estimated